Time;durP1;ratioP1;P1;durP2;ratioP2;P2;SDS_P1;SDS_P2;PMS_P1;PMS_P2;Temp;Humidity;BMP_temperature;BMP_pressure;BME280_temperature;BME280_humidity;BME280_pressure;Samples;Min_cycle;Max_cycle;Signal;HPM_P1;HPM_P2
2021/10/11 00:01:47;;;;;;;22.70;14.40;;;2.00;99.90;;;;;;5149363;27;20175;-82
2021/10/11 00:04:13;;;;;;;27.23;15.87;;;2.00;99.90;;;;;;5146133;27;20204;-82
2021/10/11 00:06:39;;;;;;;24.93;15.17;;;1.90;99.90;;;;;;5146899;27;20416;-82
2021/10/11 00:09:04;;;;;;;20.97;13.57;;;1.80;99.90;;;;;;5147117;27;20586;-82
2021/10/11 00:11:30;;;;;;;24.43;15.07;;;1.80;99.90;;;;;;5147782;27;20415;-83
2021/10/11 00:13:57;;;;;;;22.57;14.47;;;1.80;99.90;;;;;;5148130;27;20264;-82
2021/10/11 00:16:23;;;;;;;22.40;14.37;;;1.80;99.90;;;;;;5146192;27;20179;-82
2021/10/11 00:18:49;;;;;;;25.07;13.33;;;1.90;99.90;;;;;;5148456;27;20519;-83
2021/10/11 00:21:16;;;;;;;21.73;14.20;;;1.90;99.90;;;;;;5146786;27;20420;-82
2021/10/11 00:23:42;;;;;;;21.57;13.53;;;1.80;99.90;;;;;;5146653;27;20171;-82
2021/10/11 00:26:08;;;;;;;24.40;14.33;;;1.90;99.90;;;;;;5146373;27;20894;-82
2021/10/11 00:28:34;;;;;;;19.50;13.60;;;1.70;99.90;;;;;;5145952;27;20441;-83
2021/10/11 00:30:59;;;;;;;22.47;14.07;;;1.70;99.90;;;;;;5146321;27;20409;-82
2021/10/11 00:33:25;;;;;;;20.13;13.20;;;1.70;99.90;;;;;;5146339;27;20193;-82
2021/10/11 00:35:51;;;;;;;22.40;14.17;;;1.70;99.90;;;;;;5146772;27;20315;-83
2021/10/11 00:38:17;;;;;;;22.57;12.77;;;1.70;99.90;;;;;;5146475;27;20194;-82
2021/10/11 00:40:42;;;;;;;20.23;12.47;;;1.60;99.90;;;;;;5148072;27;20303;-82
2021/10/11 00:43:08;;;;;;;19.60;12.13;;;1.60;99.90;;;;;;5146199;27;20203;-82
2021/10/11 00:45:34;;;;;;;18.57;12.93;;;1.60;99.90;;;;;;5145321;27;20185;-82
2021/10/11 00:47:59;;;;;;;20.27;13.47;;;1.70;99.90;;;;;;5147708;27;20175;-82
2021/10/11 00:50:25;;;;;;;19.70;12.40;;;1.70;99.90;;;;;;5146078;27;20198;-83
2021/10/11 00:52:51;;;;;;;18.20;12.97;;;1.80;99.90;;;;;;5146707;27;20183;-82
2021/10/11 00:55:17;;;;;;;18.73;12.30;;;1.80;99.90;;;;;;5146328;27;20206;-82
2021/10/11 00:57:42;;;;;;;18.13;12.50;;;2.30;99.90;;;;;;5146958;27;20189;-83
2021/10/11 01:00:09;;;;;;;17.63;11.73;;;1.50;99.90;;;;;;5147319;27;20214;-82
2021/10/11 01:02:34;;;;;;;17.03;11.73;;;1.50;99.90;;;;;;5146086;27;20200;-82
2021/10/11 01:05:00;;;;;;;16.40;11.03;;;1.50;99.90;;;;;;5144756;27;20408;-82
2021/10/11 01:07:26;;;;;;;19.80;12.93;;;1.50;99.90;;;;;;5145642;27;20179;-82
2021/10/11 01:09:52;;;;;;;21.93;13.43;;;1.50;99.90;;;;;;5145158;27;20207;-82
2021/10/11 01:12:18;;;;;;;17.90;11.40;;;1.60;99.90;;;;;;5145674;27;20256;-82
2021/10/11 01:14:43;;;;;;;18.27;11.33;;;1.40;99.90;;;;;;5146054;27;20262;-82
2021/10/11 01:17:09;;;;;;;18.40;11.07;;;2.50;99.90;;;;;;5145433;27;20171;-81
2021/10/11 01:19:37;;;;;;;19.93;11.77;;;1.50;99.90;;;;;;5145197;27;20258;-82
2021/10/11 01:22:05;;;;;;;18.80;11.93;;;1.80;99.90;;;;;;5146143;27;20202;-82
2021/10/11 01:24:31;;;;;;;17.93;12.23;;;1.50;99.90;;;;;;5145018;27;20408;-82
2021/10/11 01:26:57;;;;;;;19.23;10.80;;;1.60;99.90;;;;;;5146931;27;20408;-82
2021/10/11 01:29:22;;;;;;;19.27;12.27;;;1.50;99.90;;;;;;5145288;27;20203;-82
2021/10/11 01:31:49;;;;;;;15.47;11.13;;;1.50;99.90;;;;;;5145243;27;20194;-82
2021/10/11 01:34:15;;;;;;;17.33;10.23;;;2.10;99.90;;;;;;5145407;27;20217;-82
2021/10/11 01:36:41;;;;;;;21.03;12.00;;;1.40;99.90;;;;;;5146824;27;20854;-82
2021/10/11 01:39:09;;;;;;;17.17;10.70;;;1.20;99.90;;;;;;5146920;27;20434;-82
2021/10/11 01:41:36;;;;;;;18.20;11.63;;;1.20;99.90;;;;;;5145646;27;20409;-82
2021/10/11 01:44:02;;;;;;;16.20;10.60;;;2.30;99.90;;;;;;5145457;27;20416;-82
2021/10/11 01:46:28;;;;;;;16.33;11.03;;;1.30;99.90;;;;;;5146262;27;20412;-81
2021/10/11 01:48:54;;;;;;;16.90;10.43;;;1.40;99.90;;;;;;5145206;27;20783;-82
2021/10/11 01:51:19;;;;;;;15.20;10.53;;;1.30;99.90;;;;;;5146181;27;20208;-81
2021/10/11 01:53:45;;;;;;;18.80;11.20;;;1.20;99.90;;;;;;5143026;27;20623;-81
2021/10/11 01:56:11;;;;;;;19.53;11.13;;;1.20;99.90;;;;;;5144444;27;20555;-81
2021/10/11 01:58:37;;;;;;;13.10;10.30;;;2.00;99.90;;;;;;5145302;27;20284;-81
2021/10/11 02:01:03;;;;;;;14.07;10.07;;;1.10;99.90;;;;;;5145411;27;20178;-82
2021/10/11 02:03:28;;;;;;;14.67;10.47;;;0.90;99.90;;;;;;5140061;27;20167;-81
2021/10/11 02:05:54;;;;;;;15.97;10.73;;;1.00;99.90;;;;;;5142755;27;20412;-82
2021/10/11 02:08:20;;;;;;;15.87;10.47;;;2.10;99.90;;;;;;5138615;27;20216;-81
2021/10/11 02:10:45;;;;;;;15.47;9.30;;;1.00;99.90;;;;;;5149230;27;20178;-82
2021/10/11 02:13:11;;;;;;;14.67;9.90;;;1.30;99.90;;;;;;5137736;27;20648;-81
2021/10/11 02:15:37;;;;;;;14.57;9.73;;;1.10;99.90;;;;;;5139617;27;20216;-81
2021/10/11 02:18:02;;;;;;;15.97;9.83;;;1.00;99.90;;;;;;5145218;27;20178;-82
2021/10/11 02:20:28;;;;;;;14.03;9.43;;;1.30;99.90;;;;;;5146470;27;20170;-82
2021/10/11 02:22:54;;;;;;;16.43;9.80;;;0.90;99.90;;;;;;5146931;27;20170;-82
2021/10/11 02:25:20;;;;;;;14.60;9.83;;;0.80;99.90;;;;;;5147201;27;20262;-82
2021/10/11 02:27:46;;;;;;;17.30;10.47;;;1.50;99.90;;;;;;5149025;27;20200;-82
2021/10/11 02:30:12;;;;;;;14.97;9.80;;;0.70;99.90;;;;;;5144619;27;20485;-81
2021/10/11 02:32:39;;;;;;;13.40;9.00;;;0.90;99.90;;;;;;5145176;27;20198;-81
2021/10/11 02:35:06;;;;;;;14.60;10.07;;;1.30;99.90;;;;;;5144371;27;20451;-81
2021/10/11 02:37:31;;;;;;;16.87;9.93;;;0.70;99.90;;;;;;5144733;27;20418;-81
2021/10/11 02:39:57;;;;;;;14.00;9.60;;;1.00;99.90;;;;;;5143372;27;20428;-81
2021/10/11 02:42:24;;;;;;;14.00;9.23;;;0.60;99.90;;;;;;5143934;27;20188;-82
2021/10/11 02:44:49;;;;;;;12.07;8.50;;;0.60;99.90;;;;;;5145403;27;20652;-81
2021/10/11 02:47:15;;;;;;;18.60;9.70;;;0.60;99.90;;;;;;5144375;27;20461;-82
2021/10/11 02:49:41;;;;;;;18.33;9.50;;;0.60;99.90;;;;;;5144945;27;20228;-81
2021/10/11 02:52:07;;;;;;;15.30;10.13;;;0.60;99.90;;;;;;5143881;27;20177;-81
2021/10/11 02:54:33;;;;;;;12.53;9.30;;;0.60;99.90;;;;;;5143903;27;20202;-81
2021/10/11 02:56:59;;;;;;;14.27;9.03;;;0.50;99.90;;;;;;5144744;27;20616;-82
2021/10/11 02:59:24;;;;;;;15.70;9.00;;;0.80;99.90;;;;;;5144495;28;20187;-82
2021/10/11 03:01:50;;;;;;;13.30;8.60;;;0.40;99.90;;;;;;5143974;28;20412;-81
2021/10/11 03:04:16;;;;;;;13.20;8.67;;;0.50;99.90;;;;;;5143815;28;20186;-81
2021/10/11 03:06:41;;;;;;;13.57;8.97;;;1.50;99.90;;;;;;5143849;28;20596;-81
2021/10/11 03:09:07;;;;;;;12.00;8.20;;;0.50;99.90;;;;;;5144939;28;20270;-82
2021/10/11 03:11:33;;;;;;;11.83;7.60;;;0.50;99.90;;;;;;5143489;28;20194;-81
2021/10/11 03:13:59;;;;;;;13.87;8.73;;;0.40;99.90;;;;;;5144814;28;20190;-81
2021/10/11 03:16:24;;;;;;;12.17;8.20;;;0.50;99.90;;;;;;5143024;28;20212;-81
2021/10/11 03:18:50;;;;;;;12.50;9.10;;;0.60;99.90;;;;;;5142815;28;20214;-81
2021/10/11 03:21:18;;;;;;;10.00;7.57;;;0.60;99.90;;;;;;5145042;28;20519;-81
2021/10/11 03:23:44;;;;;;;16.50;9.23;;;0.70;99.90;;;;;;5143180;28;20525;-81
2021/10/11 03:26:10;;;;;;;14.67;8.97;;;0.40;99.90;;;;;;5144529;28;20479;-81
2021/10/11 03:28:36;;;;;;;11.33;8.40;;;1.00;99.90;;;;;;5144755;28;20420;-81
2021/10/11 03:31:02;;;;;;;12.77;8.50;;;0.30;99.90;;;;;;5142236;28;20171;-81
2021/10/11 03:33:27;;;;;;;13.37;8.97;;;0.30;99.90;;;;;;5142507;28;20191;-81
2021/10/11 03:35:53;;;;;;;15.50;8.87;;;0.30;99.90;;;;;;5142398;28;20228;-82
2021/10/11 03:38:19;;;;;;;15.03;8.20;;;0.70;99.90;;;;;;5143467;28;20201;-81
2021/10/11 03:40:44;;;;;;;11.50;8.43;;;1.60;99.90;;;;;;5145330;28;20175;-82
2021/10/11 03:43:10;;;;;;;10.23;7.53;;;1.00;99.90;;;;;;5145287;28;20173;-82
2021/10/11 03:45:36;;;;;;;14.40;9.17;;;0.30;99.90;;;;;;5144906;28;20179;-82
2021/10/11 03:48:02;;;;;;;15.97;8.73;;;0.30;99.90;;;;;;5144861;28;20226;-82
2021/10/11 03:50:27;;;;;;;13.80;8.10;;;0.20;99.90;;;;;;5145145;28;20167;-82
2021/10/11 03:52:53;;;;;;;11.20;7.77;;;0.20;99.90;;;;;;5143910;28;20203;-82
2021/10/11 03:55:19;;;;;;;13.37;8.07;;;0.20;99.90;;;;;;5144644;28;20198;-82
2021/10/11 03:57:44;;;;;;;11.57;8.37;;;0.30;99.90;;;;;;5144439;28;20228;-81
2021/10/11 04:00:10;;;;;;;11.17;8.50;;;0.30;99.90;;;;;;5144477;28;20187;-81
2021/10/11 04:02:36;;;;;;;11.10;7.57;;;0.30;99.90;;;;;;5144908;28;20620;-81
2021/10/11 04:05:02;;;;;;;12.67;7.77;;;0.30;99.90;;;;;;5142273;28;20428;-82
2021/10/11 04:07:28;;;;;;;9.83;7.10;;;0.30;99.90;;;;;;5144899;28;20178;-82
2021/10/11 04:09:57;;;;;;;9.70;7.23;;;0.10;99.90;;;;;;5144365;27;20205;-81
2021/10/11 04:12:32;;;;;;;9.30;6.73;;;1.60;99.90;;;;;;5146959;27;20632;-82
2021/10/11 04:14:58;;;;;;;12.17;7.67;;;1.20;99.90;;;;;;5146030;27;20447;-82
2021/10/11 04:17:23;;;;;;;10.27;6.80;;;0.10;99.90;;;;;;5146793;27;20772;-81
2021/10/11 04:19:49;;;;;;;8.73;6.77;;;0.20;99.90;;;;;;5148180;27;20193;-82
2021/10/11 04:22:14;;;;;;;10.60;7.47;;;0.80;99.90;;;;;;5144480;27;20171;-81
2021/10/11 04:24:40;;;;;;;15.93;7.47;;;0.90;99.90;;;;;;5146480;27;20173;-81
2021/10/11 04:27:06;;;;;;;14.63;6.97;;;0.60;99.90;;;;;;5149159;27;20220;-83
2021/10/11 04:29:31;;;;;;;9.63;6.80;;;0.70;99.90;;;;;;5148616;27;20199;-82
2021/10/11 04:31:57;;;;;;;9.17;6.30;;;1.30;99.90;;;;;;5149229;27;20659;-82
2021/10/11 04:34:23;;;;;;;10.57;7.17;;;0.00;99.90;;;;;;5148433;27;20667;-82
2021/10/11 04:36:48;;;;;;;9.63;6.57;;;0.00;99.90;;;;;;5150298;27;20166;-81
2021/10/11 04:39:14;;;;;;;12.47;6.67;;;0.10;99.90;;;;;;5153994;27;20195;-81
2021/10/11 04:41:40;;;;;;;11.03;7.23;;;0.10;99.90;;;;;;5154869;27;20195;-81
2021/10/11 04:44:05;;;;;;;8.30;6.40;;;0.30;99.90;;;;;;5152673;27;20178;-83
2021/10/11 04:46:31;;;;;;;10.17;6.67;;;0.10;99.90;;;;;;5149905;27;20184;-82
2021/10/11 04:48:57;;;;;;;10.10;6.70;;;0.20;99.90;;;;;;5147616;27;20210;-82
2021/10/11 04:51:22;;;;;;;9.97;6.73;;;0.20;99.90;;;;;;5148354;27;20644;-82
2021/10/11 04:53:48;;;;;;;9.47;6.60;;;0.40;99.90;;;;;;5148172;27;20175;-82
2021/10/11 04:56:14;;;;;;;10.43;6.47;;;0.80;99.90;;;;;;5148691;27;20186;-82
2021/10/11 04:58:39;;;;;;;12.07;7.27;;;0.30;99.90;;;;;;5145204;27;20186;-82
2021/10/11 05:01:05;;;;;;;7.93;5.50;;;0.20;99.90;;;;;;5144142;27;20170;-82
2021/10/11 05:03:30;;;;;;;10.97;6.23;;;1.30;99.90;;;;;;5142669;27;20244;-82
2021/10/11 05:05:56;;;;;;;10.03;6.47;;;0.30;99.90;;;;;;5144262;27;20636;-82
2021/10/11 05:08:22;;;;;;;12.27;6.63;;;0.20;99.90;;;;;;5142671;27;20210;-82
2021/10/11 05:10:47;;;;;;;8.40;6.03;;;0.90;99.90;;;;;;5141833;27;20186;-82
2021/10/11 05:13:13;;;;;;;9.93;6.67;;;0.20;99.90;;;;;;5142771;27;20178;-81
2021/10/11 05:15:39;;;;;;;12.43;6.50;;;0.20;99.90;;;;;;5141447;27;20281;-81
2021/10/11 05:18:04;;;;;;;8.77;6.17;;;2.10;99.90;;;;;;5139699;27;20227;-82
2021/10/11 05:20:33;;;;;;;9.03;6.27;;;0.20;99.90;;;;;;5137924;27;20174;-81
2021/10/11 05:22:59;;;;;;;8.97;6.43;;;0.30;99.90;;;;;;5146100;27;20195;-82
2021/10/11 05:25:28;;;;;;;9.17;5.73;;;0.40;99.90;;;;;;5146672;27;20413;-82
2021/10/11 05:27:54;;;;;;;9.07;6.17;;;0.20;99.90;;;;;;5147669;27;20456;-82
2021/10/11 05:30:20;;;;;;;11.47;6.30;;;0.20;99.90;;;;;;5146892;27;20439;-83
2021/10/11 05:32:46;;;;;;;12.67;6.93;;;0.30;99.90;;;;;;5146603;27;20507;-81
2021/10/11 05:35:12;;;;;;;8.40;6.03;;;0.50;99.90;;;;;;5145772;27;20229;-82
2021/10/11 05:37:38;;;;;;;9.03;6.00;;;0.30;99.90;;;;;;5145799;27;20404;-81
2021/10/11 05:40:08;;;;;;;9.63;5.80;;;0.40;99.90;;;;;;5147178;27;20186;-81
2021/10/11 05:42:34;;;;;;;8.10;6.07;;;0.30;99.90;;;;;;5147375;27;20186;-81
2021/10/11 05:44:59;;;;;;;10.50;6.30;;;0.30;99.90;;;;;;5144898;27;20417;-81
2021/10/11 05:47:25;;;;;;;8.17;5.53;;;0.30;99.90;;;;;;5144450;27;20605;-81
2021/10/11 05:49:51;;;;;;;7.87;5.30;;;1.10;99.90;;;;;;5148109;27;20222;-82
2021/10/11 05:52:16;;;;;;;8.20;5.20;;;0.30;99.90;;;;;;5148172;27;20200;-81
2021/10/11 05:54:42;;;;;;;7.77;5.20;;;1.10;99.90;;;;;;5148730;27;20213;-81
2021/10/11 05:57:08;;;;;;;8.37;5.30;;;0.40;99.90;;;;;;5148594;27;20261;-82
2021/10/11 05:59:33;;;;;;;10.27;5.93;;;1.60;99.90;;;;;;5150268;27;20283;-82
2021/10/11 06:01:59;;;;;;;11.77;5.70;;;1.30;99.90;;;;;;5149650;27;20224;-81
2021/10/11 06:04:25;;;;;;;8.93;5.17;;;1.60;99.90;;;;;;5150139;27;20171;-81
2021/10/11 06:06:50;;;;;;;7.33;5.27;;;0.80;99.90;;;;;;5148826;27;20163;-81
2021/10/11 06:09:18;;;;;;;12.63;5.63;;;0.40;99.90;;;;;;5147852;27;20191;-82
2021/10/11 06:11:44;;;;;;;8.67;5.00;;;1.00;99.90;;;;;;5147427;27;20235;-82
2021/10/11 06:14:10;;;;;;;8.80;5.07;;;1.70;99.90;;;;;;5146252;27;20452;-81
2021/10/11 06:16:36;;;;;;;5.90;4.53;;;0.60;99.90;;;;;;5146590;27;20427;-81
2021/10/11 06:19:02;;;;;;;6.27;4.63;;;0.70;99.90;;;;;;5146800;27;20198;-81
2021/10/11 06:21:28;;;;;;;6.37;5.17;;;1.10;99.90;;;;;;5147015;27;20197;-81
2021/10/11 06:23:54;;;;;;;8.57;4.80;;;1.10;99.90;;;;;;5146603;27;20206;-82
2021/10/11 06:26:21;;;;;;;7.37;4.80;;;2.00;99.90;;;;;;5146851;27;20179;-82
2021/10/11 06:28:46;;;;;;;7.37;4.70;;;0.70;99.90;;;;;;5147990;27;20450;-82
2021/10/11 06:31:12;;;;;;;6.03;4.20;;;0.80;99.90;;;;;;5146438;27;20413;-81
2021/10/11 06:33:38;;;;;;;5.33;4.00;;;0.90;99.90;;;;;;5146046;27;20243;-81
2021/10/11 06:36:03;;;;;;;5.70;4.00;;;1.70;99.90;;;;;;5147834;27;20206;-82
2021/10/11 06:38:29;;;;;;;5.97;4.33;;;1.00;99.90;;;;;;5151089;27;20278;-81
2021/10/11 06:40:55;;;;;;;5.23;4.13;;;1.00;99.90;;;;;;5154289;27;20190;-81
2021/10/11 06:43:20;;;;;;;6.43;4.30;;;1.10;99.90;;;;;;5155044;27;20175;-81
2021/10/11 06:45:46;;;;;;;4.77;3.93;;;1.20;99.90;;;;;;5156572;27;20175;-81
2021/10/11 06:48:12;;;;;;;6.33;4.70;;;1.20;99.90;;;;;;5155620;27;20372;-82
2021/10/11 06:50:38;;;;;;;8.80;5.33;;;1.20;99.90;;;;;;5149346;27;20198;-82
2021/10/11 06:53:03;;;;;;;5.80;4.67;;;1.40;99.90;;;;;;5146403;27;20654;-82
2021/10/11 06:55:29;;;;;;;5.40;4.07;;;1.20;99.90;;;;;;5146694;27;20265;-82
2021/10/11 06:57:55;;;;;;;8.13;5.40;;;2.50;99.90;;;;;;5145938;28;20181;-82
2021/10/11 07:00:21;;;;;;;6.53;4.93;;;1.80;99.90;;;;;;5147572;28;20173;-82
2021/10/11 07:02:46;;;;;;;5.13;4.00;;;1.60;99.90;;;;;;5140424;28;20194;-82
2021/10/11 07:05:14;;;;;;;8.93;4.73;;;1.70;99.90;;;;;;5140954;28;20423;-82
2021/10/11 07:07:41;;;;;;;8.67;4.57;;;1.70;99.90;;;;;;5146141;28;20238;-82
2021/10/11 07:10:07;;;;;;;6.93;4.83;;;1.90;99.90;;;;;;5148063;28;20436;-82
2021/10/11 07:12:34;;;;;;;6.97;4.87;;;1.90;99.90;;;;;;5150274;28;20776;-82
2021/10/11 07:14:59;;;;;;;6.20;5.20;;;2.10;99.90;;;;;;5146775;28;20460;-82
2021/10/11 07:17:25;;;;;;;5.87;4.63;;;2.30;99.90;;;;;;5148816;28;20484;-82
2021/10/11 07:19:51;;;;;;;5.60;3.80;;;2.30;99.90;;;;;;5148259;28;20551;-82
2021/10/11 07:22:18;;;;;;;7.37;4.50;;;2.40;99.90;;;;;;5148097;28;20196;-82
2021/10/11 07:24:45;;;;;;;6.17;4.10;;;2.50;99.90;;;;;;5148344;28;20186;-82
2021/10/11 07:27:11;;;;;;;5.50;4.17;;;2.70;99.90;;;;;;5147251;28;20438;-82
2021/10/11 07:29:38;;;;;;;9.73;4.53;;;2.80;99.90;;;;;;5141450;28;20440;-82
2021/10/11 07:32:04;;;;;;;7.13;5.27;;;3.00;99.90;;;;;;5142761;28;20446;-82
2021/10/11 07:34:30;;;;;;;7.30;4.97;;;3.20;99.90;;;;;;5143172;28;20452;-82
2021/10/11 07:36:56;;;;;;;6.70;5.03;;;3.40;99.90;;;;;;5142529;28;20415;-82
2021/10/11 07:39:22;;;;;;;6.23;4.77;;;3.60;99.90;;;;;;5142879;28;20191;-82
2021/10/11 07:41:48;;;;;;;6.63;4.93;;;3.80;99.90;;;;;;5142547;28;20175;-82
2021/10/11 07:44:13;;;;;;;4.90;4.40;;;4.00;99.90;;;;;;5143825;27;20175;-82
2021/10/11 07:46:39;;;;;;;5.97;4.90;;;4.30;99.90;;;;;;5147642;27;20188;-83
2021/10/11 07:49:05;;;;;;;7.10;5.30;;;4.60;99.90;;;;;;5147203;27;20203;-82
2021/10/11 07:51:31;;;;;;;5.73;4.67;;;4.90;99.90;;;;;;5148405;27;20181;-82
2021/10/11 07:53:57;;;;;;;8.47;4.33;;;5.20;99.90;;;;;;5146859;27;20428;-82
2021/10/11 07:56:23;;;;;;;6.10;4.47;;;5.50;99.90;;;;;;5148376;27;20194;-83
2021/10/11 07:58:48;;;;;;;4.60;4.10;;;6.20;99.90;;;;;;5147855;27;20533;-82
2021/10/11 08:01:14;;;;;;;6.30;3.67;;;6.80;99.90;;;;;;5147712;27;20230;-82
2021/10/11 08:03:40;;;;;;;9.53;3.80;;;7.00;99.90;;;;;;5149771;27;20167;-82
2021/10/11 08:06:07;;;;;;;6.80;3.50;;;6.90;99.90;;;;;;5149696;27;20174;-83
2021/10/11 08:08:34;;;;;;;6.53;3.70;;;7.10;99.90;;;;;;5148187;27;20190;-82
2021/10/11 08:10:59;;;;;;;7.43;3.70;;;7.60;99.90;;;;;;5142491;27;20187;-82
2021/10/11 08:13:25;;;;;;;8.03;3.97;;;8.20;99.90;;;;;;5146373;27;20167;-82
2021/10/11 08:15:51;;;;;;;6.67;3.53;;;9.20;99.90;;;;;;5141178;27;20218;-82
2021/10/11 08:18:17;;;;;;;4.93;3.67;;;9.60;99.90;;;;;;5140336;27;20233;-81
2021/10/11 08:20:43;;;;;;;4.40;3.30;;;10.20;99.90;;;;;;5138893;27;20641;-81
2021/10/11 08:23:09;;;;;;;5.07;3.53;;;10.60;99.90;;;;;;5137708;27;20220;-81
2021/10/11 08:25:35;;;;;;;4.83;3.70;;;10.80;99.90;;;;;;5141040;27;20715;-82
2021/10/11 08:28:02;;;;;;;5.73;3.33;;;10.90;99.90;;;;;;5148459;27;20250;-81
2021/10/11 08:30:27;;;;;;;7.57;4.43;;;11.10;99.90;;;;;;5150850;27;20171;-82
2021/10/11 08:32:53;;;;;;;4.93;4.10;;;11.60;99.90;;;;;;5148791;27;20228;-81
2021/10/11 08:35:19;;;;;;;5.47;4.40;;;12.00;99.90;;;;;;5148931;27;20226;-82
2021/10/11 08:37:44;;;;;;;6.13;4.63;;;12.40;99.90;;;;;;5149323;27;20704;-82
2021/10/11 08:40:10;;;;;;;6.93;4.77;;;12.70;99.90;;;;;;5148761;27;20198;-82
2021/10/11 08:42:37;;;;;;;7.30;5.57;;;12.80;99.90;;;;;;5149084;27;20179;-82
2021/10/11 08:45:06;;;;;;;8.13;5.20;;;12.70;99.90;;;;;;5149460;27;20182;-82
2021/10/11 08:47:31;;;;;;;7.17;5.40;;;12.60;99.90;;;;;;5150471;27;20191;-82
2021/10/11 08:49:57;;;;;;;10.23;5.77;;;12.00;99.90;;;;;;5153974;27;20195;-82
2021/10/11 08:52:23;;;;;;;11.40;6.00;;;12.10;99.90;;;;;;5155966;27;20253;-82
2021/10/11 08:54:53;;;;;;;13.90;8.77;;;12.40;99.90;;;;;;5153950;27;20219;-82
2021/10/11 08:57:24;;;;;;;10.50;7.90;;;12.30;99.90;;;;;;5156377;27;20174;-82
2021/10/11 08:59:52;;;;;;;15.87;12.63;;;12.50;99.90;;;;;;5151515;27;20198;-82
2021/10/11 09:02:24;;;;;;;9.90;7.10;;;12.70;99.90;;;;;;5150325;27;20173;-82
2021/10/11 09:04:53;;;;;;;10.23;7.47;;;12.90;99.90;;;;;;5148952;27;20171;-82
2021/10/11 09:07:26;;;;;;;10.93;7.87;;;13.00;99.90;;;;;;5149898;27;20245;-83
2021/10/11 09:09:54;;;;;;;11.50;8.70;;;13.30;99.90;;;;;;5148299;27;20209;-82
2021/10/11 09:12:25;;;;;;;11.40;8.47;;;13.10;99.90;;;;;;5150361;27;20182;-81
2021/10/11 09:15:12;;;;;;;11.07;8.10;;;12.90;99.90;;;;;;5147422;27;20229;-82
2021/10/11 09:17:46;;;;;;;11.83;8.03;;;12.80;99.90;;;;;;5146225;27;20185;-82
2021/10/11 09:20:14;;;;;;;10.07;8.60;;;12.90;99.90;;;;;;5145567;27;20205;-82
2021/10/11 09:22:41;;;;;;;15.93;10.33;;;13.20;99.90;;;;;;5145595;27;20214;-82
2021/10/11 09:25:08;;;;;;;11.07;9.07;;;13.60;99.90;;;;;;5145076;27;20252;-82
2021/10/11 09:27:44;;;;;;;12.10;8.87;;;13.90;99.90;;;;;;5146917;27;20171;-82
2021/10/11 09:30:12;;;;;;;11.73;9.20;;;14.20;99.90;;;;;;5145333;27;20224;-82
2021/10/11 09:32:38;;;;;;;11.93;8.43;;;13.80;99.90;;;;;;5145162;27;20190;-82
2021/10/11 09:35:12;;;;;;;11.57;8.77;;;13.80;99.90;;;;;;5146648;27;20218;-82
2021/10/11 09:37:38;;;;;;;15.17;8.10;;;14.00;99.90;;;;;;5147285;27;20639;-82
2021/10/11 09:40:05;;;;;;;15.17;9.07;;;14.20;99.90;;;;;;5145223;27;20204;-82
2021/10/11 09:42:31;;;;;;;13.10;8.60;;;14.20;99.90;;;;;;5147097;27;20171;-82
2021/10/11 09:44:57;;;;;;;11.37;9.10;;;14.50;99.90;;;;;;5145564;27;20208;-82
2021/10/11 09:50:01;;;;;;;11.70;8.17;;;15.50;99.90;;;;;;5146915;27;20194;-82
2021/10/11 09:52:27;;;;;;;8.57;7.03;;;15.70;99.90;;;;;;5145674;27;20232;-82
2021/10/11 09:54:53;;;;;;;14.40;8.33;;;15.80;99.90;;;;;;5144882;27;20612;-82
2021/10/11 09:57:19;;;;;;;9.70;6.97;;;15.40;99.90;;;;;;5147983;27;20177;-82
2021/10/11 09:59:46;;;;;;;10.03;7.03;;;15.70;99.90;;;;;;5147741;27;20191;-82
2021/10/11 10:02:12;;;;;;;8.43;7.30;;;15.50;99.90;;;;;;5148016;27;20234;-82
2021/10/11 10:04:41;;;;;;;8.17;7.07;;;15.50;99.90;;;;;;5146329;27;20181;-82
2021/10/11 10:07:09;;;;;;;10.37;6.40;;;15.60;99.90;;;;;;5147759;27;20182;-83
2021/10/11 10:09:42;;;;;;;8.83;6.40;;;15.70;99.90;;;;;;5145696;27;20199;-81
2021/10/11 10:12:09;;;;;;;8.13;6.60;;;16.00;99.90;;;;;;5146142;27;20175;-81
2021/10/11 10:14:35;;;;;;;8.87;6.20;;;16.50;99.90;;;;;;5145010;27;20206;-82
2021/10/11 10:17:01;;;;;;;7.07;6.37;;;16.60;99.90;;;;;;5145499;27;20171;-82
2021/10/11 10:19:40;;;;;;;8.80;6.50;;;16.80;99.90;;;;;;5145529;27;20210;-83
2021/10/11 10:22:09;;;;;;;8.27;6.27;;;16.80;98.80;;;;;;5146032;27;20167;-82
2021/10/11 10:24:35;;;;;;;10.43;5.40;;;16.70;98.80;;;;;;5147425;27;20169;-82
2021/10/11 10:27:09;;;;;;;9.33;6.27;;;16.60;99.20;;;;;;5144298;27;20202;-82
2021/10/11 10:29:41;;;;;;;15.40;10.93;;;16.70;97.80;;;;;;5144141;27;20213;-82
2021/10/11 10:32:08;;;;;;;13.07;8.53;;;17.20;99.90;;;;;;5142332;27;20188;-82
2021/10/11 10:34:33;;;;;;;8.70;7.80;;;17.10;99.40;;;;;;5143228;27;20207;-82
2021/10/11 10:37:06;;;;;;;7.87;7.07;;;16.60;98.50;;;;;;5145123;27;20199;-82
2021/10/11 10:39:49;;;;;;;10.10;7.80;;;16.70;99.40;;;;;;5143305;27;20191;-82
2021/10/11 10:42:29;;;;;;;9.40;8.40;;;17.20;99.70;;;;;;5147064;27;20650;-82
2021/10/11 10:44:57;;;;;;;7.10;5.80;;;17.60;98.10;;;;;;5146916;27;20196;-82
2021/10/11 10:47:38;;;;;;;6.00;5.40;;;18.20;95.90;;;;;;5145753;27;20186;-82
2021/10/11 10:50:11;;;;;;;6.70;5.43;;;18.10;96.10;;;;;;5145063;27;20286;-82
2021/10/11 10:52:36;;;;;;;9.43;6.67;;;18.10;94.80;;;;;;5144810;27;20163;-82
2021/10/11 10:55:02;;;;;;;6.13;5.53;;;18.70;97.00;;;;;;5146813;27;20557;-82
2021/10/11 10:57:30;;;;;;;7.93;5.50;;;18.90;95.80;;;;;;5148459;27;20177;-82
2021/10/11 11:00:00;;;;;;;9.30;6.03;;;18.70;93.60;;;;;;5146638;28;20197;-83
2021/10/11 11:02:27;;;;;;;6.73;5.37;;;18.90;97.00;;;;;;5147505;28;20185;-82
2021/10/11 11:05:03;;;;;;;6.73;5.90;;;19.20;95.70;;;;;;5146432;28;20204;-82
2021/10/11 11:07:37;;;;;;;8.90;6.10;;;18.90;93.10;;;;;;5147027;28;20173;-83
2021/10/11 11:10:12;;;;;;;6.70;5.83;;;18.80;92.50;;;;;;5149014;28;20210;-82
2021/10/11 11:12:42;;;;;;;6.23;5.63;;;18.30;92.50;;;;;;5144777;28;20201;-82
2021/10/11 11:15:30;;;;;;;14.10;12.33;;;17.70;93.00;;;;;;5143673;28;20199;-82
2021/10/11 11:18:00;;;;;;;8.50;5.23;;;18.10;93.10;;;;;;5125051;27;20234;-82
2021/10/11 11:20:28;;;;;;;5.97;4.47;;;19.20;93.30;;;;;;5146060;27;20240;-82
2021/10/11 11:23:21;;;;;;;6.63;5.40;;;19.70;90.00;;;;;;5150310;27;20655;-82
2021/10/11 11:25:52;;;;;;;4.50;4.10;;;19.20;89.50;;;;;;5151259;27;20309;-83
2021/10/11 11:28:23;;;;;;;5.63;4.57;;;18.50;88.90;;;;;;5150754;27;20270;-83
2021/10/11 11:30:51;;;;;;;5.93;4.83;;;18.60;87.80;;;;;;5151485;27;20185;-83
2021/10/11 11:33:22;;;;;;;5.40;4.90;;;19.00;90.50;;;;;;5151702;27;20192;-83
2021/10/11 11:35:49;;;;;;;8.30;5.20;;;19.10;90.10;;;;;;5153169;27;20190;-82
2021/10/11 11:38:19;;;;;;;6.97;4.37;;;19.20;86.80;;;;;;5152323;27;20174;-83
2021/10/11 11:40:56;;;;;;;4.67;3.53;;;19.20;83.50;;;;;;5152145;27;20173;-82
2021/10/11 11:43:22;;;;;;;4.67;4.20;;;19.80;86.10;;;;;;5151573;27;20569;-83
2021/10/11 11:45:54;;;;;;;5.70;4.73;;;20.00;83.10;;;;;;5150268;27;20352;-82
2021/10/11 11:48:28;;;;;;;4.77;3.80;;;19.40;81.80;;;;;;5150818;27;20193;-82
2021/10/11 11:51:00;;;;;;;6.63;4.70;;;19.20;77.20;;;;;;5150253;27;20180;-83
2021/10/11 11:53:27;;;;;;;7.03;4.60;;;19.40;80.80;;;;;;5151900;27;20161;-82
2021/10/11 11:55:54;;;;;;;4.73;3.80;;;19.50;81.10;;;;;;5149564;27;20208;-82
2021/10/11 11:58:31;;;;;;;6.80;3.70;;;19.30;78.50;;;;;;5151346;27;20251;-82
2021/10/11 12:01:03;;;;;;;3.40;3.10;;;19.90;75.60;;;;;;5152206;27;20170;-83
2021/10/11 12:03:31;;;;;;;5.83;3.40;;;20.20;74.70;;;;;;5150576;27;20253;-83
2021/10/11 12:05:59;;;;;;;5.20;4.70;;;20.60;73.10;;;;;;5150686;27;20177;-83
2021/10/11 12:08:25;;;;;;;7.00;5.20;;;20.40;77.50;;;;;;5150818;27;20208;-83
2021/10/11 12:11:07;;;;;;;5.60;5.00;;;20.70;75.50;;;;;;5153067;27;20185;-82
2021/10/11 12:13:38;;;;;;;5.83;4.67;;;20.60;74.30;;;;;;5150938;27;20185;-83
2021/10/11 12:16:06;;;;;;;5.67;4.83;;;20.00;71.90;;;;;;5151572;27;20230;-84
2021/10/11 12:18:45;;;;;;;6.73;3.77;;;19.90;73.90;;;;;;5150292;27;20196;-83
2021/10/11 12:21:32;;;;;;;5.20;3.87;;;20.30;76.40;;;;;;5149067;27;20180;-84
2021/10/11 12:24:00;;;;;;;5.50;4.97;;;20.70;72.10;;;;;;5150270;27;20695;-83
2021/10/11 12:26:27;;;;;;;4.93;4.20;;;20.70;65.00;;;;;;5149623;27;20241;-83
2021/10/11 12:28:55;;;;;;;10.40;8.60;;;20.60;67.40;;;;;;5151756;27;20195;-83
2021/10/11 12:31:24;;;;;;;6.27;4.13;;;20.90;69.60;;;;;;5148811;27;20703;-83
2021/10/11 12:33:51;;;;;;;5.17;4.20;;;21.60;66.20;;;;;;5149492;27;20190;-84
2021/10/11 12:36:18;;;;;;;7.03;4.43;;;21.70;65.70;;;;;;5148565;27;20210;-81
2021/10/11 12:38:44;;;;;;;4.67;4.23;;;21.00;66.70;;;;;;5150103;27;20333;-81
2021/10/11 12:41:12;;;;;;;6.00;4.70;;;20.50;66.50;;;;;;5150606;27;20172;-81
2021/10/11 12:43:39;;;;;;;6.33;4.40;;;20.40;68.10;;;;;;5148142;27;20236;-82
2021/10/11 12:46:11;;;;;;;7.07;4.20;;;21.10;65.70;;;;;;5149099;27;20187;-81
2021/10/11 12:48:52;;;;;;;6.87;5.13;;;21.50;64.80;;;;;;5149095;27;20196;-82